sensor_id;sensor_type;location;lat;lon;timestamp;P1;durP1;ratioP1;P2;durP2;ratioP2
68653;SDS011;55636;51.108;13.622;2023-10-31T00:00:15;7.25;;;4.88;;
68653;SDS011;55636;51.108;13.622;2023-10-31T00:01:18;5.32;;;4.55;;
68653;SDS011;55636;51.108;13.622;2023-10-31T00:02:22;6.03;;;5.20;;
68653;SDS011;55636;51.108;13.622;2023-10-31T00:03:24;5.30;;;4.80;;
68653;SDS011;55636;51.108;13.622;2023-10-31T00:04:27;6.82;;;4.85;;
68653;SDS011;55636;51.108;13.622;2023-10-31T00:05:29;5.40;;;4.90;;
68653;SDS011;55636;51.108;13.622;2023-10-31T00:06:32;6.60;;;5.00;;
68653;SDS011;55636;51.108;13.622;2023-10-31T00:07:35;7.10;;;4.88;;
68653;SDS011;55636;51.108;13.622;2023-10-31T00:08:38;5.80;;;4.78;;
68653;SDS011;55636;51.108;13.622;2023-10-31T00:09:40;7.70;;;5.22;;
68653;SDS011;55636;51.108;13.622;2023-10-31T00:10:43;5.47;;;4.70;;
68653;SDS011;55636;51.108;13.622;2023-10-31T00:11:47;6.95;;;4.78;;
68653;SDS011;55636;51.108;13.622;2023-10-31T00:12:49;5.30;;;4.80;;
68653;SDS011;55636;51.108;13.622;2023-10-31T00:13:52;5.95;;;5.10;;
68653;SDS011;55636;51.108;13.622;2023-10-31T00:14:54;5.35;;;4.68;;
68653;SDS011;55636;51.108;13.622;2023-10-31T00:15:56;7.35;;;4.80;;
68653;SDS011;55636;51.108;13.622;2023-10-31T00:16:59;7.47;;;4.82;;
68653;SDS011;55636;51.108;13.622;2023-10-31T00:18:02;5.25;;;4.70;;
68653;SDS011;55636;51.108;13.622;2023-10-31T00:19:04;5.47;;;4.80;;
68653;SDS011;55636;51.108;13.622;2023-10-31T00:20:07;6.18;;;5.07;;
68653;SDS011;55636;51.108;13.622;2023-10-31T00:21:09;6.47;;;5.28;;
68653;SDS011;55636;51.108;13.622;2023-10-31T00:22:12;6.75;;;4.93;;
68653;SDS011;55636;51.108;13.622;2023-10-31T00:23:15;5.63;;;4.70;;
68653;SDS011;55636;51.108;13.622;2023-10-31T00:24:17;5.72;;;5.10;;
68653;SDS011;55636;51.108;13.622;2023-10-31T00:25:20;6.43;;;5.10;;
68653;SDS011;55636;51.108;13.622;2023-10-31T00:26:22;5.75;;;5.05;;
68653;SDS011;55636;51.108;13.622;2023-10-31T00:27:27;6.13;;;5.10;;
68653;SDS011;55636;51.108;13.622;2023-10-31T00:28:30;5.82;;;4.65;;
68653;SDS011;55636;51.108;13.622;2023-10-31T00:29:32;6.57;;;5.20;;
68653;SDS011;55636;51.108;13.622;2023-10-31T00:30:35;6.00;;;5.40;;
68653;SDS011;55636;51.108;13.622;2023-10-31T00:31:37;7.40;;;4.90;;
68653;SDS011;55636;51.108;13.622;2023-10-31T00:32:43;6.00;;;5.07;;
68653;SDS011;55636;51.108;13.622;2023-10-31T00:33:46;5.88;;;5.10;;
68653;SDS011;55636;51.108;13.622;2023-10-31T00:34:48;5.35;;;4.82;;
68653;SDS011;55636;51.108;13.622;2023-10-31T00:35:51;6.32;;;5.00;;
68653;SDS011;55636;51.108;13.622;2023-10-31T00:36:53;5.45;;;4.88;;
68653;SDS011;55636;51.108;13.622;2023-10-31T00:37:56;5.40;;;4.90;;
68653;SDS011;55636;51.108;13.622;2023-10-31T00:38:58;5.45;;;4.70;;
68653;SDS011;55636;51.108;13.622;2023-10-31T00:40:01;5.63;;;4.90;;
68653;SDS011;55636;51.108;13.622;2023-10-31T00:41:03;6.45;;;5.00;;
68653;SDS011;55636;51.108;13.622;2023-10-31T00:42:06;8.52;;;5.15;;
68653;SDS011;55636;51.108;13.622;2023-10-31T00:43:09;6.00;;;5.13;;
68653;SDS011;55636;51.108;13.622;2023-10-31T00:44:12;6.60;;;4.90;;
68653;SDS011;55636;51.108;13.622;2023-10-31T00:45:15;7.57;;;5.40;;
68653;SDS011;55636;51.108;13.622;2023-10-31T00:46:18;6.78;;;5.63;;
68653;SDS011;55636;51.108;13.622;2023-10-31T00:47:21;6.93;;;5.07;;
68653;SDS011;55636;51.108;13.622;2023-10-31T00:48:24;6.32;;;5.22;;
68653;SDS011;55636;51.108;13.622;2023-10-31T00:49:27;8.00;;;5.13;;
68653;SDS011;55636;51.108;13.622;2023-10-31T00:50:29;6.85;;;4.97;;
68653;SDS011;55636;51.108;13.622;2023-10-31T00:51:32;5.60;;;5.10;;
68653;SDS011;55636;51.108;13.622;2023-10-31T00:52:35;5.13;;;4.55;;
68653;SDS011;55636;51.108;13.622;2023-10-31T00:53:38;5.50;;;5.00;;
68653;SDS011;55636;51.108;13.622;2023-10-31T00:54:41;5.80;;;5.20;;
68653;SDS011;55636;51.108;13.622;2023-10-31T00:55:44;6.93;;;4.97;;
68653;SDS011;55636;51.108;13.622;2023-10-31T00:56:47;5.18;;;4.68;;
68653;SDS011;55636;51.108;13.622;2023-10-31T00:57:50;6.50;;;4.85;;
68653;SDS011;55636;51.108;13.622;2023-10-31T00:58:52;6.18;;;4.95;;
68653;SDS011;55636;51.108;13.622;2023-10-31T00:59:55;7.05;;;4.97;;
68653;SDS011;55636;51.108;13.622;2023-10-31T01:00:57;6.47;;;4.90;;
68653;SDS011;55636;51.108;13.622;2023-10-31T01:02:00;5.78;;;5.15;;
68653;SDS011;55636;51.108;13.622;2023-10-31T01:03:03;5.40;;;4.80;;
68653;SDS011;55636;51.108;13.622;2023-10-31T01:04:05;5.47;;;4.93;;
68653;SDS011;55636;51.108;13.622;2023-10-31T01:05:08;5.45;;;4.95;;
68653;SDS011;55636;51.108;13.622;2023-10-31T01:06:10;6.78;;;5.03;;
68653;SDS011;55636;51.108;13.622;2023-10-31T01:07:13;6.70;;;4.90;;
68653;SDS011;55636;51.108;13.622;2023-10-31T01:08:19;6.25;;;4.95;;
68653;SDS011;55636;51.108;13.622;2023-10-31T01:09:21;5.57;;;4.93;;
68653;SDS011;55636;51.108;13.622;2023-10-31T01:10:24;6.05;;;5.30;;
68653;SDS011;55636;51.108;13.622;2023-10-31T01:11:26;5.63;;;4.90;;
68653;SDS011;55636;51.108;13.622;2023-10-31T01:12:29;5.97;;;4.80;;
68653;SDS011;55636;51.108;13.622;2023-10-31T01:13:33;5.78;;;4.88;;
68653;SDS011;55636;51.108;13.622;2023-10-31T01:14:35;7.50;;;5.10;;
68653;SDS011;55636;51.108;13.622;2023-10-31T01:15:38;6.47;;;4.88;;
68653;SDS011;55636;51.108;13.622;2023-10-31T01:16:40;7.03;;;5.20;;
68653;SDS011;55636;51.108;13.622;2023-10-31T01:17:43;7.18;;;4.90;;
68653;SDS011;55636;51.108;13.622;2023-10-31T01:18:46;6.45;;;5.22;;
68653;SDS011;55636;51.108;13.622;2023-10-31T01:19:50;6.97;;;4.60;;
68653;SDS011;55636;51.108;13.622;2023-10-31T01:20:53;5.50;;;5.00;;
68653;SDS011;55636;51.108;13.622;2023-10-31T01:21:56;5.43;;;4.93;;
68653;SDS011;55636;51.108;13.622;2023-10-31T01:22:58;6.75;;;5.00;;
68653;SDS011;55636;51.108;13.622;2023-10-31T01:24:01;5.60;;;4.93;;
68653;SDS011;55636;51.108;13.622;2023-10-31T01:25:03;7.57;;;5.25;;
68653;SDS011;55636;51.108;13.622;2023-10-31T01:26:06;6.18;;;5.03;;
68653;SDS011;55636;51.108;13.622;2023-10-31T01:27:09;6.28;;;4.88;;
68653;SDS011;55636;51.108;13.622;2023-10-31T01:28:11;5.80;;;5.20;;
68653;SDS011;55636;51.108;13.622;2023-10-31T01:29:14;6.32;;;5.32;;
68653;SDS011;55636;51.108;13.622;2023-10-31T01:30:16;5.72;;;5.13;;
68653;SDS011;55636;51.108;13.622;2023-10-31T01:31:19;7.20;;;5.20;;
68653;SDS011;55636;51.108;13.622;2023-10-31T01:32:21;6.80;;;5.40;;
68653;SDS011;55636;51.108;13.622;2023-10-31T01:33:24;5.70;;;5.20;;
68653;SDS011;55636;51.108;13.622;2023-10-31T01:34:26;5.75;;;5.13;;
68653;SDS011;55636;51.108;13.622;2023-10-31T01:35:29;7.32;;;5.53;;
68653;SDS011;55636;51.108;13.622;2023-10-31T01:36:31;6.25;;;5.22;;
68653;SDS011;55636;51.108;13.622;2023-10-31T01:37:34;6.13;;;5.35;;
68653;SDS011;55636;51.108;13.622;2023-10-31T01:38:36;5.70;;;5.10;;
68653;SDS011;55636;51.108;13.622;2023-10-31T01:39:38;6.80;;;5.18;;
68653;SDS011;55636;51.108;13.622;2023-10-31T01:40:41;5.50;;;4.90;;
68653;SDS011;55636;51.108;13.622;2023-10-31T01:41:43;6.53;;;5.40;;
68653;SDS011;55636;51.108;13.622;2023-10-31T01:42:46;5.30;;;4.45;;
68653;SDS011;55636;51.108;13.622;2023-10-31T01:43:48;6.88;;;5.50;;
68653;SDS011;55636;51.108;13.622;2023-10-31T01:44:51;5.90;;;5.03;;
68653;SDS011;55636;51.108;13.622;2023-10-31T01:45:53;7.78;;;5.32;;
68653;SDS011;55636;51.108;13.622;2023-10-31T01:46:55;5.75;;;5.05;;
68653;SDS011;55636;51.108;13.622;2023-10-31T01:47:58;6.88;;;5.07;;
68653;SDS011;55636;51.108;13.622;2023-10-31T01:49:00;5.80;;;5.20;;
68653;SDS011;55636;51.108;13.622;2023-10-31T01:50:03;6.97;;;5.40;;
68653;SDS011;55636;51.108;13.622;2023-10-31T01:51:09;6.82;;;5.68;;
68653;SDS011;55636;51.108;13.622;2023-10-31T01:52:12;6.25;;;5.65;;
68653;SDS011;55636;51.108;13.622;2023-10-31T01:53:14;7.00;;;5.53;;
68653;SDS011;55636;51.108;13.622;2023-10-31T01:54:18;5.93;;;5.32;;
68653;SDS011;55636;51.108;13.622;2023-10-31T01:55:20;6.30;;;5.50;;
68653;SDS011;55636;51.108;13.622;2023-10-31T01:56:24;5.90;;;5.18;;
68653;SDS011;55636;51.108;13.622;2023-10-31T01:57:27;6.13;;;5.53;;
68653;SDS011;55636;51.108;13.622;2023-10-31T01:58:34;6.72;;;5.57;;
68653;SDS011;55636;51.108;13.622;2023-10-31T01:59:38;7.32;;;5.20;;
68653;SDS011;55636;51.108;13.622;2023-10-31T02:00:41;6.78;;;5.30;;
68653;SDS011;55636;51.108;13.622;2023-10-31T02:01:45;6.18;;;5.57;;
68653;SDS011;55636;51.108;13.622;2023-10-31T02:02:47;7.35;;;5.80;;
68653;SDS011;55636;51.108;13.622;2023-10-31T02:03:53;6.25;;;5.65;;
68653;SDS011;55636;51.108;13.622;2023-10-31T02:04:56;6.00;;;5.43;;
68653;SDS011;55636;51.108;13.622;2023-10-31T02:05:58;6.43;;;5.82;;
68653;SDS011;55636;51.108;13.622;2023-10-31T02:07:01;6.80;;;5.57;;
68653;SDS011;55636;51.108;13.622;2023-10-31T02:08:04;6.95;;;5.45;;
68653;SDS011;55636;51.108;13.622;2023-10-31T02:09:10;6.30;;;5.63;;
68653;SDS011;55636;51.108;13.622;2023-10-31T02:10:13;7.40;;;6.03;;
68653;SDS011;55636;51.108;13.622;2023-10-31T02:11:15;6.32;;;5.70;;
68653;SDS011;55636;51.108;13.622;2023-10-31T02:12:39;6.78;;;5.60;;
68653;SDS011;55636;51.108;13.622;2023-10-31T02:13:41;6.13;;;5.60;;
68653;SDS011;55636;51.108;13.622;2023-10-31T02:14:44;6.45;;;5.78;;
68653;SDS011;55636;51.108;13.622;2023-10-31T02:15:47;7.72;;;6.10;;
68653;SDS011;55636;51.108;13.622;2023-10-31T02:16:49;6.68;;;6.00;;
68653;SDS011;55636;51.108;13.622;2023-10-31T02:17:52;6.93;;;5.72;;
68653;SDS011;55636;51.108;13.622;2023-10-31T02:18:55;6.25;;;5.40;;
68653;SDS011;55636;51.108;13.622;2023-10-31T02:19:57;6.50;;;5.68;;
68653;SDS011;55636;51.108;13.622;2023-10-31T02:21:00;6.80;;;5.78;;
68653;SDS011;55636;51.108;13.622;2023-10-31T02:22:02;6.82;;;6.20;;
68653;SDS011;55636;51.108;13.622;2023-10-31T02:23:05;7.30;;;6.60;;
68653;SDS011;55636;51.108;13.622;2023-10-31T02:24:07;7.65;;;6.95;;
68653;SDS011;55636;51.108;13.622;2023-10-31T02:25:16;7.53;;;6.82;;
68653;SDS011;55636;51.108;13.622;2023-10-31T02:26:20;8.70;;;7.80;;
68653;SDS011;55636;51.108;13.622;2023-10-31T02:27:22;8.77;;;7.97;;
68653;SDS011;55636;51.108;13.622;2023-10-31T02:28:25;10.05;;;8.50;;
68653;SDS011;55636;51.108;13.622;2023-10-31T02:29:30;8.60;;;7.70;;
68653;SDS011;55636;51.108;13.622;2023-10-31T02:30:33;8.70;;;7.80;;
68653;SDS011;55636;51.108;13.622;2023-10-31T02:31:37;9.43;;;7.80;;
68653;SDS011;55636;51.108;13.622;2023-10-31T02:32:39;8.10;;;7.30;;
68653;SDS011;55636;51.108;13.622;2023-10-31T02:33:42;8.57;;;7.68;;
68653;SDS011;55636;51.108;13.622;2023-10-31T02:34:45;8.75;;;7.65;;
68653;SDS011;55636;51.108;13.622;2023-10-31T02:35:47;10.23;;;7.88;;
68653;SDS011;55636;51.108;13.622;2023-10-31T02:36:50;8.23;;;7.43;;
68653;SDS011;55636;51.108;13.622;2023-10-31T02:37:52;9.13;;;7.20;;
68653;SDS011;55636;51.108;13.622;2023-10-31T02:38:55;7.78;;;7.00;;
68653;SDS011;55636;51.108;13.622;2023-10-31T02:39:57;7.80;;;7.05;;
68653;SDS011;55636;51.108;13.622;2023-10-31T02:41:00;8.20;;;7.40;;
68653;SDS011;55636;51.108;13.622;2023-10-31T02:42:03;7.63;;;6.93;;
68653;SDS011;55636;51.108;13.622;2023-10-31T02:43:06;9.07;;;7.82;;
68653;SDS011;55636;51.108;13.622;2023-10-31T02:44:08;8.75;;;7.85;;
68653;SDS011;55636;51.108;13.622;2023-10-31T02:45:11;9.25;;;8.32;;
68653;SDS011;55636;51.108;13.622;2023-10-31T02:46:14;12.07;;;9.18;;
68653;SDS011;55636;51.108;13.622;2023-10-31T02:47:17;11.73;;;10.52;;
68653;SDS011;55636;51.108;13.622;2023-10-31T02:48:22;13.05;;;11.68;;
68653;SDS011;55636;51.108;13.622;2023-10-31T02:49:26;12.95;;;11.63;;
68653;SDS011;55636;51.108;13.622;2023-10-31T02:50:28;14.93;;;13.35;;
68653;SDS011;55636;51.108;13.622;2023-10-31T02:51:30;15.52;;;14.02;;
68653;SDS011;55636;51.108;13.622;2023-10-31T02:52:33;15.13;;;13.52;;
68653;SDS011;55636;51.108;13.622;2023-10-31T02:53:35;16.27;;;14.63;;
68653;SDS011;55636;51.108;13.622;2023-10-31T02:54:38;15.68;;;14.05;;
68653;SDS011;55636;51.108;13.622;2023-10-31T02:55:40;16.65;;;14.57;;
68653;SDS011;55636;51.108;13.622;2023-10-31T02:56:43;16.65;;;14.93;;
68653;SDS011;55636;51.108;13.622;2023-10-31T02:57:46;16.38;;;14.60;;
68653;SDS011;55636;51.108;13.622;2023-10-31T02:58:48;16.75;;;14.98;;
68653;SDS011;55636;51.108;13.622;2023-10-31T02:59:51;18.13;;;16.27;;
68653;SDS011;55636;51.108;13.622;2023-10-31T03:00:54;18.90;;;16.90;;
68653;SDS011;55636;51.108;13.622;2023-10-31T03:01:57;18.25;;;16.35;;
68653;SDS011;55636;51.108;13.622;2023-10-31T03:03:04;18.25;;;16.35;;
68653;SDS011;55636;51.108;13.622;2023-10-31T03:04:06;18.88;;;16.88;;
68653;SDS011;55636;51.108;13.622;2023-10-31T03:05:09;19.67;;;17.67;;
68653;SDS011;55636;51.108;13.622;2023-10-31T03:06:11;18.63;;;16.63;;
68653;SDS011;55636;51.108;13.622;2023-10-31T03:07:14;20.48;;;17.30;;
68653;SDS011;55636;51.108;13.622;2023-10-31T03:08:16;19.65;;;17.55;;
68653;SDS011;55636;51.108;13.622;2023-10-31T03:09:22;20.27;;;18.17;;
68653;SDS011;55636;51.108;13.622;2023-10-31T03:10:26;20.20;;;18.08;;
68653;SDS011;55636;51.108;13.622;2023-10-31T03:11:28;19.85;;;17.80;;
68653;SDS011;55636;51.108;13.622;2023-10-31T03:12:31;19.98;;;17.88;;
68653;SDS011;55636;51.108;13.622;2023-10-31T03:13:33;19.85;;;17.83;;
68653;SDS011;55636;51.108;13.622;2023-10-31T03:14:36;18.73;;;16.80;;
68653;SDS011;55636;51.108;13.622;2023-10-31T03:15:40;19.08;;;17.08;;
68653;SDS011;55636;51.108;13.622;2023-10-31T03:16:42;18.17;;;16.27;;
68653;SDS011;55636;51.108;13.622;2023-10-31T03:17:44;19.52;;;17.52;;
68653;SDS011;55636;51.108;13.622;2023-10-31T03:18:47;18.58;;;16.67;;
68653;SDS011;55636;51.108;13.622;2023-10-31T03:19:49;18.10;;;16.30;;
68653;SDS011;55636;51.108;13.622;2023-10-31T03:20:52;18.10;;;16.27;;
68653;SDS011;55636;51.108;13.622;2023-10-31T03:21:54;18.27;;;16.42;;
68653;SDS011;55636;51.108;13.622;2023-10-31T03:22:56;18.58;;;16.70;;
68653;SDS011;55636;51.108;13.622;2023-10-31T03:23:59;17.92;;;16.13;;
68653;SDS011;55636;51.108;13.622;2023-10-31T03:25:02;17.92;;;15.90;;
68653;SDS011;55636;51.108;13.622;2023-10-31T03:26:04;17.25;;;15.50;;
68653;SDS011;55636;51.108;13.622;2023-10-31T03:27:07;15.75;;;13.90;;
68653;SDS011;55636;51.108;13.622;2023-10-31T03:28:20;15.40;;;13.90;;
68653;SDS011;55636;51.108;13.622;2023-10-31T03:29:25;14.52;;;13.02;;
68653;SDS011;55636;51.108;13.622;2023-10-31T03:30:27;14.38;;;12.98;;
68653;SDS011;55636;51.108;13.622;2023-10-31T03:31:29;13.18;;;11.88;;
68653;SDS011;55636;51.108;13.622;2023-10-31T03:32:32;13.18;;;11.88;;
68653;SDS011;55636;51.108;13.622;2023-10-31T03:33:34;13.32;;;12.02;;
68653;SDS011;55636;51.108;13.622;2023-10-31T03:34:37;11.60;;;10.40;;
68653;SDS011;55636;51.108;13.622;2023-10-31T03:35:39;12.35;;;11.10;;
68653;SDS011;55636;51.108;13.622;2023-10-31T03:36:42;12.38;;;11.18;;
68653;SDS011;55636;51.108;13.622;2023-10-31T03:37:44;11.60;;;10.40;;
68653;SDS011;55636;51.108;13.622;2023-10-31T03:38:47;11.13;;;10.02;;
68653;SDS011;55636;51.108;13.622;2023-10-31T03:39:49;10.48;;;9.38;;
68653;SDS011;55636;51.108;13.622;2023-10-31T03:40:52;8.75;;;7.93;;
68653;SDS011;55636;51.108;13.622;2023-10-31T03:41:54;8.90;;;8.00;;
68653;SDS011;55636;51.108;13.622;2023-10-31T03:42:59;8.73;;;7.82;;
68653;SDS011;55636;51.108;13.622;2023-10-31T03:44:03;8.70;;;7.80;;
68653;SDS011;55636;51.108;13.622;2023-10-31T03:45:06;9.15;;;8.23;;
68653;SDS011;55636;51.108;13.622;2023-10-31T03:46:09;8.73;;;7.80;;
68653;SDS011;55636;51.108;13.622;2023-10-31T03:47:13;8.82;;;7.93;;
68653;SDS011;55636;51.108;13.622;2023-10-31T03:48:16;8.48;;;7.68;;
68653;SDS011;55636;51.108;13.622;2023-10-31T03:49:19;8.43;;;7.63;;
68653;SDS011;55636;51.108;13.622;2023-10-31T03:50:22;8.10;;;7.30;;
68653;SDS011;55636;51.108;13.622;2023-10-31T03:51:24;8.00;;;7.20;;
68653;SDS011;55636;51.108;13.622;2023-10-31T03:52:27;8.05;;;7.25;;
68653;SDS011;55636;51.108;13.622;2023-10-31T03:53:29;7.85;;;7.10;;
68653;SDS011;55636;51.108;13.622;2023-10-31T03:54:32;8.32;;;7.10;;
68653;SDS011;55636;51.108;13.622;2023-10-31T03:55:35;7.75;;;6.60;;
68653;SDS011;55636;51.108;13.622;2023-10-31T03:56:38;7.25;;;6.28;;
68653;SDS011;55636;51.108;13.622;2023-10-31T03:57:42;7.20;;;6.28;;
68653;SDS011;55636;51.108;13.622;2023-10-31T03:58:44;6.68;;;6.00;;
68653;SDS011;55636;51.108;13.622;2023-10-31T03:59:47;6.82;;;6.18;;
68653;SDS011;55636;51.108;13.622;2023-10-31T04:00:49;7.55;;;6.07;;
68653;SDS011;55636;51.108;13.622;2023-10-31T04:01:52;6.65;;;5.90;;
68653;SDS011;55636;51.108;13.622;2023-10-31T04:02:55;6.28;;;5.68;;
68653;SDS011;55636;51.108;13.622;2023-10-31T04:03:58;6.20;;;5.60;;
68653;SDS011;55636;51.108;13.622;2023-10-31T04:05:00;6.72;;;5.70;;
68653;SDS011;55636;51.108;13.622;2023-10-31T04:06:03;5.93;;;5.25;;
68653;SDS011;55636;51.108;13.622;2023-10-31T04:07:06;5.68;;;5.18;;
68653;SDS011;55636;51.108;13.622;2023-10-31T04:08:09;5.57;;;4.93;;
68653;SDS011;55636;51.108;13.622;2023-10-31T04:09:11;5.28;;;4.78;;
68653;SDS011;55636;51.108;13.622;2023-10-31T04:10:14;5.55;;;4.60;;
68653;SDS011;55636;51.108;13.622;2023-10-31T04:11:16;5.90;;;5.30;;
68653;SDS011;55636;51.108;13.622;2023-10-31T04:12:19;5.15;;;4.63;;
68653;SDS011;55636;51.108;13.622;2023-10-31T04:13:21;5.20;;;4.70;;
68653;SDS011;55636;51.108;13.622;2023-10-31T04:14:24;4.80;;;4.40;;
68653;SDS011;55636;51.108;13.622;2023-10-31T04:15:26;5.10;;;4.60;;
68653;SDS011;55636;51.108;13.622;2023-10-31T04:16:29;4.50;;;4.10;;
68653;SDS011;55636;51.108;13.622;2023-10-31T04:17:34;4.50;;;4.10;;
68653;SDS011;55636;51.108;13.622;2023-10-31T04:18:37;5.00;;;4.00;;
68653;SDS011;55636;51.108;13.622;2023-10-31T04:19:39;4.60;;;3.83;;
68653;SDS011;55636;51.108;13.622;2023-10-31T04:20:43;4.15;;;3.78;;
68653;SDS011;55636;51.108;13.622;2023-10-31T04:21:47;4.45;;;4.03;;
68653;SDS011;55636;51.108;13.622;2023-10-31T04:22:49;4.57;;;3.85;;
68653;SDS011;55636;51.108;13.622;2023-10-31T04:23:51;4.20;;;3.80;;
68653;SDS011;55636;51.108;13.622;2023-10-31T04:24:55;4.13;;;3.80;;
68653;SDS011;55636;51.108;13.622;2023-10-31T04:25:58;6.07;;;3.97;;
68653;SDS011;55636;51.108;13.622;2023-10-31T04:27:02;4.20;;;3.80;;
68653;SDS011;55636;51.108;13.622;2023-10-31T04:28:05;4.00;;;3.60;;
68653;SDS011;55636;51.108;13.622;2023-10-31T04:29:08;3.63;;;3.33;;
68653;SDS011;55636;51.108;13.622;2023-10-31T04:30:10;3.42;;;3.13;;
68653;SDS011;55636;51.108;13.622;2023-10-31T04:31:16;3.63;;;3.33;;
68653;SDS011;55636;51.108;13.622;2023-10-31T04:32:21;3.83;;;3.30;;
68653;SDS011;55636;51.108;13.622;2023-10-31T04:33:23;3.13;;;2.83;;
68653;SDS011;55636;51.108;13.622;2023-10-31T04:34:25;2.95;;;2.72;;
68653;SDS011;55636;51.108;13.622;2023-10-31T04:35:28;2.67;;;2.47;;
68653;SDS011;55636;51.108;13.622;2023-10-31T04:36:30;3.95;;;2.55;;
68653;SDS011;55636;51.108;13.622;2023-10-31T04:37:32;2.90;;;2.20;;
68653;SDS011;55636;51.108;13.622;2023-10-31T04:38:36;2.60;;;2.25;;
68653;SDS011;55636;51.108;13.622;2023-10-31T04:39:43;2.35;;;2.15;;
68653;SDS011;55636;51.108;13.622;2023-10-31T04:40:45;2.13;;;1.92;;
68653;SDS011;55636;51.108;13.622;2023-10-31T04:41:48;2.67;;;2.10;;
68653;SDS011;55636;51.108;13.622;2023-10-31T04:42:50;2.72;;;2.17;;
68653;SDS011;55636;51.108;13.622;2023-10-31T04:43:53;1.80;;;1.70;;
68653;SDS011;55636;51.108;13.622;2023-10-31T04:44:55;2.17;;;1.80;;
68653;SDS011;55636;51.108;13.622;2023-10-31T04:45:57;2.22;;;2.03;;
68653;SDS011;55636;51.108;13.622;2023-10-31T04:47:00;2.17;;;1.60;;
68653;SDS011;55636;51.108;13.622;2023-10-31T04:48:03;1.85;;;1.50;;
68653;SDS011;55636;51.108;13.622;2023-10-31T04:49:05;2.33;;;1.52;;
68653;SDS011;55636;51.108;13.622;2023-10-31T04:50:08;1.67;;;1.58;;
68653;SDS011;55636;51.108;13.622;2023-10-31T04:51:11;1.70;;;1.60;;
68653;SDS011;55636;51.108;13.622;2023-10-31T04:52:13;1.80;;;1.70;;
68653;SDS011;55636;51.108;13.622;2023-10-31T04:53:16;1.92;;;1.83;;
68653;SDS011;55636;51.108;13.622;2023-10-31T04:54:18;1.92;;;1.73;;
68653;SDS011;55636;51.108;13.622;2023-10-31T04:55:21;1.60;;;1.50;;
68653;SDS011;55636;51.108;13.622;2023-10-31T04:56:23;2.03;;;1.83;;
68653;SDS011;55636;51.108;13.622;2023-10-31T04:57:25;1.90;;;1.52;;
68653;SDS011;55636;51.108;13.622;2023-10-31T04:58:28;2.45;;;1.58;;
68653;SDS011;55636;51.108;13.622;2023-10-31T04:59:30;1.90;;;1.80;;
68653;SDS011;55636;51.108;13.622;2023-10-31T05:00:32;2.28;;;1.77;;
68653;SDS011;55636;51.108;13.622;2023-10-31T05:01:35;2.42;;;1.77;;
68653;SDS011;55636;51.108;13.622;2023-10-31T05:02:37;1.70;;;1.60;;
68653;SDS011;55636;51.108;13.622;2023-10-31T05:03:40;1.70;;;1.60;;
68653;SDS011;55636;51.108;13.622;2023-10-31T05:04:42;1.90;;;1.80;;
68653;SDS011;55636;51.108;13.622;2023-10-31T05:05:45;1.85;;;1.75;;
68653;SDS011;55636;51.108;13.622;2023-10-31T05:06:48;2.08;;;1.88;;
68653;SDS011;55636;51.108;13.622;2023-10-31T05:07:50;2.00;;;1.90;;
68653;SDS011;55636;51.108;13.622;2023-10-31T05:08:55;2.03;;;1.80;;
68653;SDS011;55636;51.108;13.622;2023-10-31T05:09:58;1.98;;;1.80;;
68653;SDS011;55636;51.108;13.622;2023-10-31T05:11:01;1.80;;;1.70;;
68653;SDS011;55636;51.108;13.622;2023-10-31T05:12:04;2.13;;;1.92;;
68653;SDS011;55636;51.108;13.622;2023-10-31T05:13:07;2.10;;;1.90;;
68653;SDS011;55636;51.108;13.622;2023-10-31T05:14:09;2.45;;;1.90;;
68653;SDS011;55636;51.108;13.622;2023-10-31T05:15:14;1.70;;;1.60;;
68653;SDS011;55636;51.108;13.622;2023-10-31T05:16:17;2.33;;;2.13;;
68653;SDS011;55636;51.108;13.622;2023-10-31T05:17:19;2.17;;;1.98;;
68653;SDS011;55636;51.108;13.622;2023-10-31T05:18:22;1.83;;;1.73;;
68653;SDS011;55636;51.108;13.622;2023-10-31T05:19:25;1.77;;;1.67;;
68653;SDS011;55636;51.108;13.622;2023-10-31T05:20:27;1.80;;;1.70;;
68653;SDS011;55636;51.108;13.622;2023-10-31T05:21:30;3.00;;;1.70;;
68653;SDS011;55636;51.108;13.622;2023-10-31T05:22:32;1.60;;;1.50;;
68653;SDS011;55636;51.108;13.622;2023-10-31T05:23:34;1.80;;;1.70;;
68653;SDS011;55636;51.108;13.622;2023-10-31T05:24:37;1.90;;;1.80;;
68653;SDS011;55636;51.108;13.622;2023-10-31T05:25:40;1.88;;;1.67;;
68653;SDS011;55636;51.108;13.622;2023-10-31T05:26:42;1.83;;;1.70;;
68653;SDS011;55636;51.108;13.622;2023-10-31T05:27:45;2.47;;;1.90;;
68653;SDS011;55636;51.108;13.622;2023-10-31T05:28:47;1.55;;;1.45;;
68653;SDS011;55636;51.108;13.622;2023-10-31T05:29:51;1.73;;;1.42;;
68653;SDS011;55636;51.108;13.622;2023-10-31T05:30:53;1.70;;;1.60;;
68653;SDS011;55636;51.108;13.622;2023-10-31T05:31:56;1.60;;;1.50;;
68653;SDS011;55636;51.108;13.622;2023-10-31T05:32:58;1.77;;;1.60;;
68653;SDS011;55636;51.108;13.622;2023-10-31T05:34:01;1.70;;;1.60;;
68653;SDS011;55636;51.108;13.622;2023-10-31T05:35:06;1.50;;;1.40;;
68653;SDS011;55636;51.108;13.622;2023-10-31T05:36:21;2.60;;;1.50;;
68653;SDS011;55636;51.108;13.622;2023-10-31T05:37:24;3.08;;;1.60;;
68653;SDS011;55636;51.108;13.622;2023-10-31T05:38:26;1.75;;;1.50;;
68653;SDS011;55636;51.108;13.622;2023-10-31T05:39:30;1.50;;;1.40;;
68653;SDS011;55636;51.108;13.622;2023-10-31T05:40:32;1.65;;;1.55;;
68653;SDS011;55636;51.108;13.622;2023-10-31T05:41:37;1.58;;;1.48;;
68653;SDS011;55636;51.108;13.622;2023-10-31T05:42:39;1.40;;;1.30;;
68653;SDS011;55636;51.108;13.622;2023-10-31T05:43:42;1.67;;;1.23;;
68653;SDS011;55636;51.108;13.622;2023-10-31T05:44:44;1.38;;;1.23;;
68653;SDS011;55636;51.108;13.622;2023-10-31T05:45:47;1.20;;;1.20;;
68653;SDS011;55636;51.108;13.622;2023-10-31T05:46:49;1.40;;;1.30;;
68653;SDS011;55636;51.108;13.622;2023-10-31T05:47:51;1.40;;;1.30;;
68653;SDS011;55636;51.108;13.622;2023-10-31T05:48:54;1.50;;;1.40;;
68653;SDS011;55636;51.108;13.622;2023-10-31T05:49:56;1.30;;;1.20;;
68653;SDS011;55636;51.108;13.622;2023-10-31T05:50:59;1.40;;;1.30;;
68653;SDS011;55636;51.108;13.622;2023-10-31T05:52:02;1.77;;;1.33;;
68653;SDS011;55636;51.108;13.622;2023-10-31T05:53:05;1.33;;;1.23;;
68653;SDS011;55636;51.108;13.622;2023-10-31T05:54:08;1.50;;;1.40;;
68653;SDS011;55636;51.108;13.622;2023-10-31T05:55:11;1.42;;;1.33;;
68653;SDS011;55636;51.108;13.622;2023-10-31T05:56:14;1.30;;;1.20;;
68653;SDS011;55636;51.108;13.622;2023-10-31T05:57:18;1.17;;;1.10;;
68653;SDS011;55636;51.108;13.622;2023-10-31T05:58:20;1.63;;;1.25;;
68653;SDS011;55636;51.108;13.622;2023-10-31T05:59:23;1.13;;;1.13;;
68653;SDS011;55636;51.108;13.622;2023-10-31T06:00:25;1.30;;;1.20;;
68653;SDS011;55636;51.108;13.622;2023-10-31T06:01:28;1.40;;;1.30;;
68653;SDS011;55636;51.108;13.622;2023-10-31T06:02:31;1.50;;;1.17;;
68653;SDS011;55636;51.108;13.622;2023-10-31T06:03:33;1.27;;;1.15;;
68653;SDS011;55636;51.108;13.622;2023-10-31T06:04:35;1.30;;;1.20;;
68653;SDS011;55636;51.108;13.622;2023-10-31T06:05:39;1.30;;;1.20;;
68653;SDS011;55636;51.108;13.622;2023-10-31T06:06:41;1.70;;;1.35;;
68653;SDS011;55636;51.108;13.622;2023-10-31T06:07:44;1.30;;;1.20;;
68653;SDS011;55636;51.108;13.622;2023-10-31T06:08:47;1.10;;;1.10;;
68653;SDS011;55636;51.108;13.622;2023-10-31T06:09:50;1.17;;;1.08;;
68653;SDS011;55636;51.108;13.622;2023-10-31T06:10:53;1.02;;;1.00;;
68653;SDS011;55636;51.108;13.622;2023-10-31T06:11:57;1.00;;;1.00;;